首页
METAR-TAF:

METAR-TAF

机场 :

阿伯丁机场

阿伯丁, 苏格兰

纬度: 57-12N, 经度: 002-13W, 海拔: 65米

当前天气观测

该预报发布于47分钟前的22:20 UTC
风速8节,风向西北
温度 8°C
湿度 81%
气压 1011 hPa
能见度10公里或以上
多云层高于3200英尺

METAR: EGPD 032220Z AUTO 31008KT 9999 BKN032 08/05 Q1011 NOSIG

时间: 00:07 (23:07 UTC)

预报

该预报发布于6小时和7分钟前的17:00 UTC
预报有效从03日的 18点(UTC)到 04日的 18点(UTC)
风速9节,风向北转西北
能见度10公里或以上
少量云层高于1000英尺
散云层高于3000英尺
短暂存在
从 03日的 18点(UTC)到 04日的 18点(UTC)
能見度: 8000
小阵雨
几率 40% :
短暂存在
从 04日的 06点(UTC)到 04日的 18点(UTC)
能見度: 5000
多云层高于1200英尺
阵雨
几率 30% :
短暂存在
从 04日的 12点(UTC)到 04日的 18点(UTC)
风速15节,风向北转西北,有时为25节阵风

TAF: EGPD 031700Z 0318/0418 33009KT 9999 FEW010 SCT030 TEMPO 0318/0418 8000 -SHRA PROB40 TEMPO 0406/0418 5000 SHRA BKN012 PROB30 TEMPO 0412/0418 34015G25KT

超过4000个机场的气象观测和天气预报(METAR&TAF报告)。

可查询的气象台以黄色和红色小点在地图上表示。

将鼠标移到小点上方,可查看气象台名称。

然后点击查看天气观测和预报。

如需切换地图:点击带黑十字的绿色按钮放大地图;点击带横线的绿色按钮缩小地图;或者点击绿色箭头查看邻近地区的地图。


METAR-TAF: